DFOO/BOY METAR and TAF weather

Enter ICAO airport designator
Station Type Date Time Source
DFOO METAR 2018/09/21 23:00 UTC NOAA

DFOO 212300Z 32004KT 9999 TS FEW016 FEW033CB 24/23 Q1014


Station Type Date Time Source
DFOO Decoded METAR 2018/09/21 23:00 UTC NOAA

Bobo-Dioulasso, Burkina Faso (DFOO) 11-10N 004-19W 460M
Sep 21, 2018 - 07:00 PM EDT / 2018.09.21 2300 UTC
Wind: from the NW (320 degrees) at 5 MPH (4 KT):0
Visibility: greater than 7 mile(s):0
Sky conditions: mostly clear
Weather: thunder; Cumulonimbus clouds observed
Temperature: 75 F (24 C)
Dew Point: 73 F (23 C)
Relative Humidity: 94%
Pressure (altimeter): 29.94 in. Hg (1014 hPa)
ob: DFOO 212300Z 32004KT 9999 TS FEW016 FEW033CB 24/23 Q1014
cycle: 23

Station Type Date Time Source
DFOO TAF 2018/09/21 00:21 UTC NOAA

TAF DFOO 212300Z 2200/2224 18008KT 9999 FEW016
TEMPO 2200/2206 4000 TSRA SCT016 FEW030CB
TEMPO 2212/2224 4000 TSRA SCT016 SCT030CB


Example: see airport list